Time;durP1;ratioP1;P1;durP2;ratioP2;P2;SDS_P1;SDS_P2;PMS_P1;PMS_P2;Temp;Humidity;BMP_temperature;BMP_pressure;BME280_temperature;BME280_humidity;BME280_pressure;Samples;Min_cycle;Max_cycle;Signal;HPM_P1;HPM_P2
2024/01/31 00:01:03;;;;;;;;;27.00;23.67;;;;;9.66;60.55;103250.16;5037745;28;73305;-51
2024/01/31 00:03:29;;;;;;;;;29.00;28.33;;;;;9.63;60.46;103254.59;5049334;28;67946;-51
2024/01/31 00:05:54;;;;;;;;;29.67;26.33;;;;;9.62;60.50;103247.53;5042857;28;70408;-48
2024/01/31 00:08:19;;;;;;;;;30.00;27.33;;;;;9.62;60.91;103252.84;5040053;28;75883;-51
2024/01/31 00:10:45;;;;;;;;;36.67;30.67;;;;;9.59;60.59;103251.97;5047526;28;69481;-50
2024/01/31 00:13:10;;;;;;;;;38.33;32.00;;;;;9.58;60.69;103250.22;5039273;28;45317;-49
2024/01/31 00:15:35;;;;;;;;;35.00;31.33;;;;;9.57;60.97;103253.75;5027926;28;45720;-51
2024/01/31 00:18:01;;;;;;;;;33.33;30.33;;;;;9.57;60.78;103250.22;5048070;28;74420;-47
2024/01/31 00:20:26;;;;;;;;;30.67;28.33;;;;;9.56;61.13;103248.44;5037678;28;45384;-50
2024/01/31 00:22:51;;;;;;;;;34.33;32.67;;;;;9.54;61.13;103256.44;5042170;28;45407;-47
2024/01/31 00:25:17;;;;;;;;;40.33;35.67;;;;;9.53;61.20;103259.09;5051489;28;68908;-47
2024/01/31 00:27:42;;;;;;;;;33.33;33.00;;;;;9.53;61.38;103253.78;5050954;28;46096;-51
2024/01/31 00:30:10;;;;;;;;;40.00;35.33;;;;;9.54;61.69;103256.44;5049818;28;45409;-47
2024/01/31 00:32:35;;;;;;;;;37.25;35.00;;;;;9.53;61.98;103253.78;5051856;28;45382;-50
2024/01/31 00:35:00;;;;;;;;;52.50;40.75;;;;;9.51;61.97;103245.81;5048927;28;45348;-50
2024/01/31 00:37:26;;;;;;;;;42.00;38.00;;;;;9.50;62.14;103241.38;5040723;28;74475;-51
2024/01/31 00:39:51;;;;;;;;;39.25;36.00;;;;;9.49;62.35;103244.06;5048451;28;66600;-52
2024/01/31 00:42:16;;;;;;;;;49.00;40.00;;;;;9.44;62.19;103238.78;5049359;28;57994;-48
2024/01/31 00:44:42;;;;;;;;;47.00;39.00;;;;;9.39;62.79;103236.16;5040905;28;45548;-52
2024/01/31 00:47:08;;;;;;;;;44.25;37.50;;;;;9.34;62.84;103235.28;5045524;28;46134;-46
2024/01/31 00:49:34;;;;;;;;;45.50;39.00;;;;;9.30;62.95;103230.91;5044913;28;45395;-52
2024/01/31 00:52:00;;;;;;;;;45.50;38.25;;;;;9.25;63.10;103222.94;5050903;28;45496;-51
2024/01/31 00:54:26;;;;;;;;;50.75;41.75;;;;;9.20;63.21;103216.78;5041183;28;45482;-51
2024/01/31 00:56:52;;;;;;;;;46.75;38.50;;;;;9.16;63.16;103217.69;5042904;28;46390;-51
2024/01/31 00:59:17;;;;;;;;;53.00;42.75;;;;;9.13;63.45;103224.81;5043754;28;72206;-51
2024/01/31 01:01:42;;;;;;;;;52.25;40.50;;;;;9.08;63.87;103220.38;5046142;28;45712;-49
2024/01/31 01:04:07;;;;;;;;;45.00;38.25;;;;;9.05;63.90;103214.22;5043655;28;62863;-51
2024/01/31 01:06:33;;;;;;;;;52.25;40.00;;;;;9.03;64.00;103213.34;5047515;28;45565;-51
2024/01/31 01:08:58;;;;;;;;;50.50;41.25;;;;;9.01;64.26;103212.47;5040695;28;69048;-50
2024/01/31 01:11:23;;;;;;;;;50.50;40.00;;;;;8.99;64.46;103219.56;5046129;28;68211;-48
2024/01/31 01:13:49;;;;;;;;;53.00;39.50;;;;;9.01;64.54;103223.06;5049535;28;45634;-51
2024/01/31 01:16:15;;;;;;;;;46.00;38.50;;;;;9.02;64.51;103215.13;5047745;28;46372;-47
2024/01/31 01:18:40;;;;;;;;;50.00;40.25;;;;;9.05;64.74;103215.09;5042124;28;45349;-49
2024/01/31 01:21:06;;;;;;;;;46.25;37.25;;;;;9.08;64.45;103214.22;5047622;28;45403;-47
2024/01/31 01:23:31;;;;;;;;;46.50;40.75;;;;;9.11;64.58;103214.19;5040953;28;54351;-51
2024/01/31 01:25:56;;;;;;;;;51.50;42.25;;;;;9.13;64.56;103211.53;5042809;28;46259;-51
2024/01/31 01:28:22;;;;;;;;;47.00;36.75;;;;;9.15;64.84;103208.00;5042460;28;45486;-51
2024/01/31 01:30:47;;;;;;;;;49.25;39.00;;;;;9.15;64.41;103207.09;5043385;28;45452;-49
2024/01/31 01:33:12;;;;;;;;;43.00;34.33;;;;;9.14;64.73;103202.66;5044210;28;45749;-53
2024/01/31 01:35:38;;;;;;;;;35.00;31.33;;;;;9.14;64.11;103203.56;5049967;28;46015;-50
2024/01/31 01:38:03;;;;;;;;;41.00;34.00;;;;;9.14;64.34;103202.66;5056671;28;45394;-50
2024/01/31 01:40:28;;;;;;;;;34.67;32.00;;;;;9.15;64.09;103209.75;5051128;28;45490;-50
2024/01/31 01:42:54;;;;;;;;;21.00;20.33;;;;;9.14;63.80;103210.63;5045829;28;54772;-52
2024/01/31 01:45:19;;;;;;;;;25.67;23.00;;;;;9.14;63.64;103210.63;5042735;28;45416;-50
2024/01/31 01:47:50;;;;;;;;;25.00;22.33;;;;;9.12;63.26;103207.97;5050582;28;45567;-50
2024/01/31 01:50:16;;;;;;;;;22.67;21.00;;;;;9.10;63.29;103208.00;5039253;28;45561;-48
2024/01/31 01:52:41;;;;;;;;;24.67;21.67;;;;;9.11;63.07;103211.53;5053973;28;45412;-49
2024/01/31 01:55:07;;;;;;;;;17.67;17.00;;;;;9.13;63.15;103211.53;5044256;28;70220;-51
2024/01/31 01:57:33;;;;;;;;;23.00;19.00;;;;;9.14;62.94;103213.28;5043720;28;45411;-50
2024/01/31 01:59:59;;;;;;;;;22.67;20.00;;;;;9.17;63.15;103214.16;5032903;28;45508;-51
2024/01/31 02:02:26;;;;;;;;;22.00;21.00;;;;;9.18;63.03;103209.75;5048431;28;45598;-51
2024/01/31 02:04:51;;;;;;;;;20.00;19.67;;;;;9.20;62.84;103214.13;5043876;28;45642;-49
2024/01/31 02:07:24;;;;;;;;;19.33;19.33;;;;;9.22;62.75;103214.13;5052108;28;70644;-50
2024/01/31 02:09:50;;;;;;;;;21.00;20.00;;;;;9.23;62.65;103214.13;5038011;28;45458;-49
2024/01/31 02:12:16;;;;;;;;;22.00;19.33;;;;;9.24;62.59;103205.28;5047277;28;45408;-51
2024/01/31 02:14:41;;;;;;;;;20.00;19.00;;;;;9.23;62.60;103206.16;5044806;28;45956;-50
2024/01/31 02:17:07;;;;;;;;;21.00;17.67;;;;;9.20;62.49;103195.53;5038463;28;70214;-52
2024/01/31 02:19:32;;;;;;;;;24.00;22.33;;;;;9.16;62.46;103191.13;5044467;28;69319;-51
2024/01/31 02:22:00;;;;;;;;;23.67;21.00;;;;;9.14;62.79;103202.66;5046267;28;70796;-51
2024/01/31 02:24:25;;;;;;;;;24.00;22.00;;;;;9.12;62.72;103201.81;5047916;28;45279;-51
2024/01/31 02:26:50;;;;;;;;;18.33;16.33;;;;;9.07;62.87;103197.41;5041986;28;66263;-51
2024/01/31 02:29:15;;;;;;;;;20.33;17.00;;;;;9.06;62.68;103195.63;5044680;28;66943;-48
2024/01/31 02:31:41;;;;;;;;;26.33;22.67;;;;;9.03;62.82;103192.09;5041581;28;61380;-50
2024/01/31 02:34:06;;;;;;;;;22.00;19.33;;;;;9.00;62.31;103200.97;5041461;28;64795;-51
2024/01/31 02:36:31;;;;;;;;;13.33;13.33;;;;;8.96;62.39;103204.53;5043048;28;45453;-51
2024/01/31 02:38:57;;;;;;;;;23.33;20.67;;;;;8.94;62.66;103206.31;5047146;28;68262;-51
2024/01/31 02:41:22;;;;;;;;;25.33;22.00;;;;;8.91;63.09;103208.97;5040114;28;45479;-49
2024/01/31 02:43:48;;;;;;;;;25.67;22.33;;;;;8.88;62.72;103209.88;5046644;28;75676;-51
2024/01/31 02:46:13;;;;;;;;;22.00;20.67;;;;;8.88;62.86;103206.34;5044616;28;45444;-50
2024/01/31 02:48:39;;;;;;;;;24.00;21.67;;;;;8.84;63.18;103213.44;5046933;28;70205;-50
2024/01/31 02:51:04;;;;;;;;;3.33;2.67;;;;;8.84;62.72;103216.09;5047197;28;51310;-51
2024/01/31 02:53:30;;;;;;;;;22.00;22.00;;;;;8.83;62.87;103216.09;5044189;28;46570;-49
2024/01/31 02:55:55;;;;;;;;;23.00;19.00;;;;;8.85;63.06;103217.88;5045574;28;72134;-49
2024/01/31 02:58:21;;;;;;;;;21.00;19.00;;;;;8.87;62.99;103216.06;5044204;28;60714;-51
2024/01/31 03:00:46;;;;;;;;;22.00;18.00;;;;;8.92;62.75;103221.38;5042037;28;66160;-49
2024/01/31 03:03:11;;;;;;;;;23.33;20.00;;;;;8.95;62.85;103224.00;5038772;28;75749;-48
2024/01/31 03:05:37;;;;;;;;;28.00;22.67;;;;;8.98;62.91;103218.66;5041458;28;68074;-49
2024/01/31 03:08:02;;;;;;;;;20.00;19.00;;;;;9.00;62.82;103224.88;5049841;28;57339;-50
2024/01/31 03:10:27;;;;;;;;;23.33;20.67;;;;;9.02;62.59;103216.88;5040526;28;45633;-49
2024/01/31 03:12:53;;;;;;;;;22.00;20.33;;;;;9.05;62.54;103216.88;5050086;28;45976;-51
2024/01/31 03:15:18;;;;;;;;;23.33;17.00;;;;;9.07;62.64;103223.97;5041004;28;71642;-50
2024/01/31 03:17:43;;;;;;;;;18.67;18.33;;;;;9.12;62.43;103231.00;5045292;28;65775;-47
2024/01/31 03:20:10;;;;;;;;;26.33;19.67;;;;;9.13;62.49;103236.31;5045119;28;45566;-46
2024/01/31 03:22:35;;;;;;;;;22.00;20.67;;;;;9.17;62.30;103237.19;5040227;28;45422;-48
2024/01/31 03:25:01;;;;;;;;;19.00;18.00;;;;;9.19;62.32;103236.28;5031875;28;64277;-52
2024/01/31 03:27:26;;;;;;;;;18.67;15.67;;;;;9.22;62.37;103228.28;5044481;28;45470;-51
2024/01/31 03:29:51;;;;;;;;;22.00;21.33;;;;;9.25;62.00;103233.56;5038837;28;45421;-50
2024/01/31 03:32:17;;;;;;;;;21.67;21.00;;;;;9.27;62.22;103231.81;5048578;28;62483;-51
2024/01/31 03:34:42;;;;;;;;;23.00;22.00;;;;;9.29;61.90;103228.25;5038202;28;45396;-48
2024/01/31 03:37:07;;;;;;;;;23.67;21.67;;;;;9.30;62.07;103233.56;5041272;28;62873;-47
2024/01/31 03:39:33;;;;;;;;;26.00;23.67;;;;;9.30;62.05;103227.38;5045131;28;45666;-49
2024/01/31 03:41:58;;;;;;;;;33.67;24.00;;;;;9.29;61.96;103223.81;5044242;28;55700;-50
2024/01/31 03:44:24;;;;;;;;;21.33;21.33;;;;;9.29;61.80;103234.44;5047827;28;45710;-52
2024/01/31 03:46:49;;;;;;;;;22.33;19.67;;;;;9.30;62.08;103236.22;5042104;28;69249;-51
2024/01/31 03:49:14;;;;;;;;;23.00;20.00;;;;;9.30;61.94;103244.19;5053145;28;45587;-51
2024/01/31 03:51:40;;;;;;;;;26.00;22.00;;;;;9.31;62.02;103242.41;5045987;28;74393;-51
2024/01/31 03:54:05;;;;;;;;;25.00;23.00;;;;;9.32;61.96;103250.38;5024937;28;45424;-52
2024/01/31 03:56:30;;;;;;;;;26.00;21.33;;;;;9.31;62.17;103237.09;5037511;28;65784;-50
2024/01/31 03:58:56;;;;;;;;;18.00;18.00;;;;;9.32;62.03;103246.81;5033588;28;45410;-51
2024/01/31 04:01:21;;;;;;;;;24.33;21.67;;;;;9.31;62.09;103240.63;5023315;28;71253;-51
2024/01/31 04:03:47;;;;;;;;;21.67;19.67;;;;;9.31;61.91;103245.06;5025834;28;45475;-49
2024/01/31 04:06:12;;;;;;;;;16.00;16.00;;;;;9.30;61.92;103240.66;5056137;28;45796;-48
2024/01/31 04:08:37;;;;;;;;;21.67;20.33;;;;;9.30;61.94;103256.59;5033012;28;72731;-47
2024/01/31 04:11:03;;;;;;;;;19.67;15.33;;;;;9.30;61.70;103262.78;5049765;28;54489;-51
2024/01/31 04:13:28;;;;;;;;;20.33;17.33;;;;;9.29;61.57;103255.69;5045540;28;45424;-50
2024/01/31 04:15:54;;;;;;;;;26.00;23.00;;;;;9.31;61.75;103258.34;5047648;28;45212;-49
2024/01/31 04:18:20;;;;;;;;;22.00;22.00;;;;;9.31;61.67;103264.53;5042265;28;45318;-51
2024/01/31 04:20:45;;;;;;;;;23.67;21.67;;;;;9.32;61.49;103262.75;5047757;28;57067;-48
2024/01/31 04:23:10;;;;;;;;;21.67;19.67;;;;;9.33;61.74;103253.91;5024507;28;45367;-47
2024/01/31 04:25:36;;;;;;;;;22.67;21.67;;;;;9.33;61.69;103246.81;5020300;28;68989;-48
2024/01/31 04:28:01;;;;;;;;;21.33;19.67;;;;;9.32;61.73;103239.75;5045193;28;67004;-49
2024/01/31 04:30:26;;;;;;;;;17.33;15.67;;;;;9.33;61.70;103238.84;5041761;28;46450;-51
2024/01/31 04:32:52;;;;;;;;;21.67;19.33;;;;;9.34;61.57;103247.72;5045329;28;45289;-51
2024/01/31 04:35:17;;;;;;;;;24.67;22.00;;;;;9.35;61.75;103239.72;5045258;28;46475;-51
2024/01/31 04:37:43;;;;;;;;;14.33;12.67;;;;;9.36;61.53;103243.25;5041929;28;45653;-51
2024/01/31 04:40:09;;;;;;;;;23.67;20.33;;;;;9.36;61.54;103243.25;5037702;28;70320;-51
2024/01/31 04:42:37;;;;;;;;;23.00;17.00;;;;;9.37;61.75;103245.03;5043238;28;45467;-51
2024/01/31 04:45:03;;;;;;;;;26.00;22.00;;;;;9.36;61.84;103236.19;5046612;28;45440;-52
2024/01/31 04:47:29;;;;;;;;;24.00;20.67;;;;;9.34;61.61;103237.09;5055394;28;45250;-52
2024/01/31 04:49:58;;;;;;;;;18.33;15.00;;;;;9.33;61.54;103228.22;5044159;28;46431;-47
2024/01/31 04:52:24;;;;;;;;;21.00;18.33;;;;;9.32;61.52;103226.47;5047493;28;45562;-50
2024/01/31 04:54:53;;;;;;;;;30.00;23.67;;;;;9.31;61.46;103224.69;5042227;28;45533;-49
2024/01/31 04:57:18;;;;;;;;;19.00;19.00;;;;;9.29;61.39;103220.28;5044698;28;45605;-51
2024/01/31 04:59:43;;;;;;;;;21.67;20.00;;;;;9.25;61.41;103222.94;5026105;28;47157;-52
2024/01/31 05:02:09;;;;;;;;;18.67;18.67;;;;;9.21;61.43;103220.34;5040120;28;73113;-51
2024/01/31 05:04:39;;;;;;;;;23.00;17.67;;;;;9.18;61.56;103223.88;5038667;28;68316;-50
2024/01/31 05:07:05;;;;;;;;;20.00;18.00;;;;;9.17;61.67;103213.28;5044436;28;45418;-52
2024/01/31 05:09:30;;;;;;;;;15.33;15.00;;;;;9.15;61.33;103204.44;5048119;28;46025;-51
2024/01/31 05:11:55;;;;;;;;;16.33;16.33;;;;;9.13;61.74;103207.09;5053678;28;45642;-49
2024/01/31 05:14:21;;;;;;;;;13.00;12.00;;;;;9.12;61.67;103204.47;5043837;28;63669;-50
2024/01/31 05:16:47;;;;;;;;;19.00;17.00;;;;;9.08;61.53;103192.97;5046881;28;45796;-50
2024/01/31 05:19:13;;;;;;;;;16.00;13.00;;;;;9.06;61.45;103198.28;5042480;28;46170;-51
2024/01/31 05:21:52;;;;;;;;;14.33;13.00;;;;;9.02;61.26;103196.56;5033970;28;48626;-50
2024/01/31 05:24:18;;;;;;;;;13.67;13.67;;;;;9.00;61.42;103200.97;5043747;28;45487;-48
2024/01/31 05:26:46;;;;;;;;;15.00;13.00;;;;;8.99;61.45;103209.81;5044523;28;45621;-53
2024/01/31 05:29:11;;;;;;;;;13.33;13.33;;;;;8.99;61.71;103208.94;5044955;28;45792;-51
2024/01/31 05:31:36;;;;;;;;;17.33;15.00;;;;;9.00;61.47;103208.94;5045503;28;50092;-52
2024/01/31 05:34:02;;;;;;;;;12.67;12.00;;;;;9.02;61.78;103211.56;5043072;28;58575;-52
2024/01/31 05:36:27;;;;;;;;;12.33;11.33;;;;;9.03;61.45;103210.69;5057676;28;45414;-49
2024/01/31 05:38:53;;;;;;;;;18.67;13.67;;;;;9.05;61.42;103198.31;5041815;28;46076;-48
2024/01/31 05:41:18;;;;;;;;;19.33;14.67;;;;;9.08;61.51;103206.25;5045948;28;45396;-52
2024/01/31 05:43:44;;;;;;;;;14.33;10.67;;;;;9.09;61.47;103200.03;5046616;28;57640;-50
2024/01/31 05:46:10;;;;;;;;;12.00;12.00;;;;;9.11;61.48;103208.88;5054457;28;45609;-50
2024/01/31 05:48:35;;;;;;;;;10.33;9.33;;;;;9.13;60.93;103199.13;5044450;28;46104;-52
2024/01/31 05:51:01;;;;;;;;;14.00;12.00;;;;;9.11;60.96;103195.59;5055489;28;45425;-48
2024/01/31 05:53:26;;;;;;;;;10.67;10.67;;;;;9.12;61.05;103193.84;5046331;28;45332;-49
2024/01/31 05:55:51;;;;;;;;;21.67;11.67;;;;;9.10;61.00;103194.72;5044326;28;54316;-51
2024/01/31 05:58:23;;;;;;;;;13.67;12.33;;;;;9.09;61.01;103186.78;5040003;28;74574;-51
2024/01/31 06:00:49;;;;;;;;;10.00;10.00;;;;;9.07;61.08;103177.91;5050533;28;45317;-48
2024/01/31 06:03:15;;;;;;;;;20.33;12.33;;;;;9.04;60.85;103185.91;5049417;28;45365;-50
2024/01/31 06:05:41;;;;;;;;;17.00;11.67;;;;;8.97;61.12;103182.41;5046453;28;45355;-49
2024/01/31 06:08:07;;;;;;;;;12.00;12.00;;;;;8.91;61.03;103172.69;5046097;28;46259;-49
2024/01/31 06:10:32;;;;;;;;;12.00;10.67;;;;;8.86;61.08;103187.75;5040759;28;45561;-52
2024/01/31 06:12:57;;;;;;;;;13.33;12.67;;;;;8.81;61.28;103178.06;5048213;28;45633;-48
2024/01/31 06:15:24;;;;;;;;;14.33;8.33;;;;;8.73;60.79;103165.69;5053213;28;45632;-51
2024/01/31 06:17:49;;;;;;;;;9.67;7.33;;;;;8.66;60.79;103179.03;5047637;28;46181;-48
2024/01/31 06:20:14;;;;;;;;;10.33;10.33;;;;;8.57;61.10;103178.16;5047680;28;45485;-49
2024/01/31 06:22:40;;;;;;;;;10.67;9.67;;;;;8.52;61.30;103174.63;5034247;28;64269;-53
2024/01/31 06:25:05;;;;;;;;;10.00;10.00;;;;;8.49;61.40;103168.47;5025868;28;70461;-48
2024/01/31 06:27:31;;;;;;;;;11.67;9.67;;;;;8.46;61.01;103169.38;5048359;28;46035;-51
2024/01/31 06:29:56;;;;;;;;;15.67;9.33;;;;;8.42;61.28;103172.88;5030624;28;48359;-50
2024/01/31 06:32:30;;;;;;;;;10.33;8.67;;;;;8.40;61.44;103172.88;5050942;28;45443;-48
2024/01/31 06:34:55;;;;;;;;;7.00;7.00;;;;;8.38;61.13;103168.47;5041295;28;45446;-51
2024/01/31 06:37:21;;;;;;;;;12.00;9.33;;;;;8.32;61.15;103172.03;5039312;28;71928;-48
2024/01/31 06:39:46;;;;;;;;;14.67;11.00;;;;;8.27;61.13;103171.16;5050477;28;69069;-52
2024/01/31 06:42:11;;;;;;;;;8.67;7.00;;;;;8.19;60.92;103167.66;5050012;28;69091;-51
2024/01/31 06:44:37;;;;;;;;;9.67;8.67;;;;;8.15;61.08;103179.13;5053187;28;70554;-50
2024/01/31 06:47:03;;;;;;;;;7.00;7.00;;;;;8.09;61.25;103178.25;5055114;28;75655;-49
2024/01/31 06:49:29;;;;;;;;;9.00;8.33;;;;;8.03;61.09;103166.78;5038491;28;45392;-50
2024/01/31 06:51:54;;;;;;;;;8.00;8.00;;;;;7.97;61.38;103166.81;5051962;28;45451;-51
2024/01/31 06:54:19;;;;;;;;;8.67;7.67;;;;;7.91;60.97;103176.53;5040251;28;69193;-51
2024/01/31 06:56:45;;;;;;;;;7.00;6.33;;;;;7.87;61.43;103176.53;5028988;28;46297;-52
2024/01/31 06:59:12;;;;;;;;;7.67;7.67;;;;;7.85;61.51;103178.28;5046158;28;45456;-53
2024/01/31 07:01:37;;;;;;;;;11.33;8.00;;;;;7.80;61.75;103180.06;5027123;28;45482;-51
2024/01/31 07:04:02;;;;;;;;;10.67;7.00;;;;;7.74;61.50;103184.50;5042031;28;69093;-52
2024/01/31 07:06:28;;;;;;;;;9.67;9.33;;;;;7.70;61.62;103188.00;5050873;28;45458;-50
2024/01/31 07:08:53;;;;;;;;;6.67;6.00;;;;;7.67;61.86;103185.34;5039080;28;61309;-50
2024/01/31 07:11:18;;;;;;;;;8.67;8.67;;;;;7.64;61.95;103185.38;5057629;28;45427;-51
2024/01/31 07:13:44;;;;;;;;;13.67;8.33;;;;;7.62;61.89;103180.03;5038079;28;69420;-51
2024/01/31 07:16:09;;;;;;;;;11.33;8.67;;;;;7.59;62.08;103182.72;5050665;28;67580;-49
2024/01/31 07:18:36;;;;;;;;;10.00;9.33;;;;;7.56;62.22;103184.47;5044408;28;45372;-53
2024/01/31 07:21:01;;;;;;;;;17.00;9.33;;;;;7.55;62.34;103201.25;5038802;28;45434;-54
2024/01/31 07:23:26;;;;;;;;;11.00;9.67;;;;;7.51;62.21;103195.06;5040970;28;45679;-54
2024/01/31 07:25:52;;;;;;;;;14.67;7.33;;;;;7.49;62.55;103195.94;5049665;28;73308;-51
2024/01/31 07:28:17;;;;;;;;;11.33;10.33;;;;;7.47;62.47;103200.34;5044398;28;70291;-52
2024/01/31 07:30:42;;;;;;;;;12.00;11.33;;;;;7.46;62.50;103210.06;5044674;28;69201;-52
2024/01/31 07:33:07;;;;;;;;;11.00;9.67;;;;;7.44;62.42;103209.16;5045459;28;64121;-51
2024/01/31 07:35:34;;;;;;;;;15.33;10.00;;;;;7.43;62.79;103210.94;5045917;28;61162;-50
2024/01/31 07:37:59;;;;;;;;;19.33;14.33;;;;;7.44;62.67;103222.41;5046296;28;45485;-53
2024/01/31 07:40:24;;;;;;;;;19.67;15.00;;;;;7.47;62.79;103221.53;5045693;28;69291;-52
2024/01/31 07:42:50;;;;;;;;;13.00;12.67;;;;;7.54;62.99;103223.31;5049146;28;45460;-54
2024/01/31 07:45:15;;;;;;;;;19.67;15.67;;;;;7.64;62.86;103221.56;5047046;28;46028;-52
2024/01/31 07:47:41;;;;;;;;;24.00;19.33;;;;;7.73;63.02;103221.56;5028515;28;45500;-52
2024/01/31 07:50:07;;;;;;;;;28.33;18.33;;;;;7.83;63.04;103220.69;5048147;28;45407;-51
2024/01/31 07:52:32;;;;;;;;;21.67;19.33;;;;;7.97;62.84;103220.69;5041018;28;45277;-49
2024/01/31 07:54:58;;;;;;;;;22.67;18.33;;;;;8.07;62.83;103211.84;5041259;28;64645;-52
2024/01/31 07:57:24;;;;;;;;;27.67;22.00;;;;;8.15;62.74;103203.88;5026756;28;64765;-51
2024/01/31 07:59:49;;;;;;;;;24.33;23.00;;;;;8.18;62.63;103190.59;5040396;28;45619;-53
2024/01/31 08:02:14;;;;;;;;;24.00;21.00;;;;;8.20;62.68;103191.50;5043246;28;61274;-54
2024/01/31 08:04:40;;;;;;;;;23.00;17.67;;;;;8.21;62.49;103192.38;5042068;28;68357;-52
2024/01/31 08:07:05;;;;;;;;;28.33;20.00;;;;;8.19;62.55;103200.34;5049855;28;45323;-53
2024/01/31 08:09:30;;;;;;;;;26.67;24.67;;;;;8.18;62.55;103197.69;5045379;28;68060;-50
2024/01/31 08:11:56;;;;;;;;;23.33;22.33;;;;;8.19;63.00;103188.84;5044493;28;70151;-53
2024/01/31 08:14:21;;;;;;;;;28.67;23.00;;;;;8.21;62.77;103187.06;5039723;28;73490;-51
2024/01/31 08:16:49;;;;;;;;;30.00;22.67;;;;;8.21;62.71;103187.97;5035068;28;48265;-52
2024/01/31 08:19:15;;;;;;;;;31.00;23.67;;;;;8.20;63.01;103191.50;5034894;28;45404;-54
2024/01/31 08:21:40;;;;;;;;;33.00;28.33;;;;;8.20;62.96;103196.81;5022557;28;45614;-51
2024/01/31 08:24:06;;;;;;;;;33.67;28.00;;;;;8.20;63.07;103193.25;5050879;28;46417;-53
2024/01/31 08:26:31;;;;;;;;;37.33;30.67;;;;;8.23;62.76;103187.97;5048393;28;51920;-55
2024/01/31 08:28:56;;;;;;;;;35.67;28.67;;;;;8.24;62.97;103193.25;5013586;28;45743;-52
2024/01/31 08:31:22;;;;;;;;;28.67;26.67;;;;;8.26;62.93;103196.75;5034158;28;56298;-54
2024/01/31 08:33:48;;;;;;;;;27.67;26.33;;;;;8.31;62.94;103204.72;5045427;28;45348;-53
2024/01/31 08:36:13;;;;;;;;;30.67;26.33;;;;;8.38;62.89;103211.81;5045736;28;45484;-54
2024/01/31 08:38:43;;;;;;;;;34.00;27.33;;;;;8.48;63.13;103223.28;5047164;28;58247;-53
2024/01/31 08:41:09;;;;;;;;;27.67;24.67;;;;;8.64;62.96;103213.50;5053531;28;45308;-51
2024/01/31 08:43:35;;;;;;;;;24.33;22.00;;;;;8.75;62.52;103205.53;5048177;28;46245;-53
2024/01/31 08:46:00;;;;;;;;;27.67;23.33;;;;;8.81;62.43;103207.25;5042052;28;45459;-51
2024/01/31 08:48:25;;;;;;;;;25.00;23.33;;;;;8.85;62.59;103203.69;5046015;28;51290;-53
2024/01/31 08:50:51;;;;;;;;;35.33;25.33;;;;;8.89;62.23;103201.03;5036891;28;50810;-53
2024/01/31 08:53:16;;;;;;;;;30.67;25.00;;;;;8.95;62.23;103208.06;5032046;28;46963;-51
2024/01/31 08:55:41;;;;;;;;;33.00;24.33;;;;;9.06;62.29;103210.66;5054896;28;65148;-53
2024/01/31 08:58:07;;;;;;;;;28.67;24.67;;;;;9.27;62.44;103209.69;5054877;28;45418;-53
2024/01/31 09:00:32;;;;;;;;;27.33;23.33;;;;;9.55;62.14;103222.78;5045444;28;69257;-54
2024/01/31 09:02:57;;;;;;;;;33.67;26.67;;;;;9.82;61.60;103228.78;5055477;28;75900;-54
2024/01/31 09:05:23;;;;;;;;;31.00;28.00;;;;;10.05;61.63;103232.13;5051861;28;45409;-52
2024/01/31 09:07:48;;;;;;;;;33.00;27.67;;;;;10.25;61.14;103244.34;5034759;28;46851;-54
2024/01/31 09:10:14;;;;;;;;;29.67;27.67;;;;;10.44;61.11;103237.06;5045419;28;66464;-54
2024/01/31 09:12:39;;;;;;;;;32.67;28.00;;;;;10.61;60.78;103234.22;5046304;28;71229;-54
2024/01/31 09:15:05;;;;;;;;;31.67;29.00;;;;;10.75;60.54;103231.41;5049834;28;56973;-52
2024/01/31 09:17:30;;;;;;;;;28.33;28.33;;;;;10.84;60.11;103212.66;5051383;28;45376;-54
2024/01/31 09:19:55;;;;;;;;;38.33;29.00;;;;;10.93;59.75;103217.84;5041931;28;70471;-52
2024/01/31 09:22:21;;;;;;;;;39.67;32.67;;;;;11.04;59.62;103215.06;5048396;28;57287;-54
2024/01/31 09:24:46;;;;;;;;;29.67;28.00;;;;;11.15;59.48;103216.72;5049041;28;70680;-54
2024/01/31 09:27:11;;;;;;;;;29.67;27.67;;;;;11.22;59.42;103211.28;5052474;28;67087;-51
2024/01/31 09:29:37;;;;;;;;;33.67;30.33;;;;;11.37;59.30;103212.81;5045127;28;45548;-51
2024/01/31 09:32:05;;;;;;;;;25.67;23.00;;;;;11.53;59.17;103215.25;5048991;28;45933;-53
2024/01/31 09:34:31;;;;;;;;;31.67;31.33;;;;;11.71;59.10;103206.06;5031996;28;45398;-50
2024/01/31 09:36:56;;;;;;;;;32.33;26.00;;;;;11.87;58.66;103193.34;5049383;28;66289;-50
2024/01/31 09:39:22;;;;;;;;;32.33;28.67;;;;;11.99;58.41;103190.50;5040163;28;60638;-51
2024/01/31 09:41:48;;;;;;;;;21.33;19.33;;;;;12.12;58.56;103196.47;5049706;28;70800;-51
2024/01/31 09:44:15;;;;;;;;;10.33;10.33;;;;;12.25;58.17;103194.47;5044023;28;45473;-55
2024/01/31 09:46:41;;;;;;;;;12.33;11.33;;;;;12.35;58.16;103185.38;5034543;28;45455;-53
2024/01/31 09:49:06;;;;;;;;;11.00;9.33;;;;;12.43;58.10;103176.34;5031673;28;45759;-54
2024/01/31 09:51:32;;;;;;;;;9.00;8.00;;;;;12.54;57.87;103177.00;5049573;28;45991;-55
2024/01/31 09:53:59;;;;;;;;;10.33;8.67;;;;;12.71;57.38;103177.53;5029445;28;45457;-53
2024/01/31 09:56:27;;;;;;;;;13.00;10.67;;;;;12.86;57.32;103168.28;5048904;28;45536;-54
2024/01/31 09:58:56;;;;;;;;;11.00;10.00;;;;;13.11;56.99;103173.09;5045452;28;46956;-52
2024/01/31 10:01:24;;;;;;;;;15.33;12.67;;;;;13.35;57.32;103168.97;5043866;28;46662;-55
2024/01/31 10:03:49;;;;;;;;;14.67;11.00;;;;;13.61;56.77;103170.16;5052277;28;45554;-54
2024/01/31 10:06:15;;;;;;;;;11.67;11.33;;;;;14.48;56.73;103154.44;5047384;28;45707;-53
2024/01/31 10:08:41;;;;;;;;;9.00;9.00;;;;;16.00;55.88;103145.13;5045487;28;45287;-50
2024/01/31 10:11:06;;;;;;;;;13.00;12.00;;;;;17.58;53.06;103139.00;5052565;28;45971;-53
2024/01/31 10:13:32;;;;;;;;;12.00;10.67;;;;;18.99;50.29;103134.41;5035879;28;60400;-52
2024/01/31 10:15:58;;;;;;;;;8.00;8.00;;;;;19.66;50.11;103125.66;5049234;28;69155;-51
2024/01/31 10:18:27;;;;;;;;;12.67;12.67;;;;;20.58;49.03;103133.34;5045783;28;45387;-53
2024/01/31 10:20:54;;;;;;;;;13.33;12.67;;;;;21.46;46.69;103119.34;5048494;28;45472;-51
2024/01/31 10:23:19;;;;;;;;;17.00;13.67;;;;;22.21;45.81;103124.66;5042270;28;45324;-52
2024/01/31 10:25:45;;;;;;;;;12.33;11.33;;;;;22.97;44.19;103119.81;5044588;28;67287;-52
2024/01/31 10:28:10;;;;;;;;;10.67;9.67;;;;;23.38;44.40;103126.19;5044198;28;45544;-49
2024/01/31 10:30:45;;;;;;;;;13.00;10.67;;;;;23.56;41.40;103118.63;5045842;28;65311;-54
2024/01/31 10:33:11;;;;;;;;;12.33;10.00;;;;;23.67;41.87;103116.00;5048882;28;45560;-55
2024/01/31 10:35:37;;;;;;;;;10.00;9.67;;;;;24.00;41.06;103125.53;5039462;28;45452;-54
2024/01/31 10:38:04;;;;;;;;;15.67;11.67;;;;;24.19;40.56;103122.34;5035350;28;45639;-55
2024/01/31 10:40:30;;;;;;;;;13.33;12.00;;;;;24.79;40.78;103114.41;5049755;28;46216;-55
2024/01/31 10:42:57;;;;;;;;;16.00;11.00;;;;;25.28;39.56;103120.72;5037499;28;45454;-55
2024/01/31 10:45:22;;;;;;;;;12.33;9.00;;;;;25.45;37.82;103115.81;5050009;28;45461;-55
2024/01/31 10:47:48;;;;;;;;;12.33;9.67;;;;;25.21;34.57;103127.59;5054707;28;59200;-55
2024/01/31 10:50:13;;;;;;;;;14.00;13.33;;;;;25.19;36.23;103119.56;5052933;28;65426;-55
2024/01/31 10:52:39;;;;;;;;;11.00;9.33;;;;;25.00;36.83;103109.19;5044254;28;45488;-54
2024/01/31 10:55:05;;;;;;;;;11.67;10.67;;;;;24.96;37.49;103112.28;5049955;28;64358;-55
2024/01/31 10:57:31;;;;;;;;;10.00;10.00;;;;;24.99;37.24;103104.75;5042189;28;45306;-54
2024/01/31 10:59:57;;;;;;;;;16.67;11.00;;;;;25.14;35.99;103108.16;5031165;28;45801;-55
2024/01/31 11:02:30;;;;;;;;;14.00;13.00;;;;;25.13;36.08;103109.13;5048976;28;73165;-54
2024/01/31 11:05:04;;;;;;;;;14.00;12.33;;;;;25.03;35.34;103100.81;5039337;28;45529;-55
2024/01/31 11:07:29;;;;;;;;;13.67;13.67;;;;;24.87;35.84;103105.66;5017213;28;45570;-54
2024/01/31 11:09:55;;;;;;;;;17.00;14.00;;;;;24.22;36.76;103104.94;5037448;28;46371;-55